< Typhoon 201611 2016 Season Typhoon 201613 >
Typhoon 201612 (NAMTHEUN)
General InformationTrack Information on Google MapsDetailed Wind InformationForecast History on Google MapsAccess Analytics MapList of All Images || NewsDisaster Info.WeblogTrackbackTyphoon FrontTwiphoonTyphoon Now!Typhoon ImaginationDisaster Info. XMLResourceGoogle EarthGE AnimationAtom FeedGeoJSON
Detalied Best Track (Time Zone = UTC)
Year Month Day Hour Lat. Long. Pressure (hPa) Wind (kt) Class Image Chart
2016 8 31 00 21.1 123.2 1002 0 2 Image Chart
2016 8 31 06 21.3 124.4 1002 0 2 Image Chart
2016 8 31 12 22.0 125.8 1002 0 2 Image Chart
2016 8 31 18 23.0 126.9 1000 0 2 Image Chart
2016 9 1 00 23.8 127.7 998 35 3 Image Chart
2016 9 1 06 24.4 129.0 994 45 3 Image Chart
2016 9 1 12 25.0 130.2 985 55 4 Image Chart
2016 9 1 15 25.3 130.5 985 55 4 Image Chart
2016 9 1 18 25.7 130.6 975 60 4 Image Chart
2016 9 1 21 26.1 130.7 975 60 4 Image Chart
2016 9 2 00 26.4 130.8 970 65 5 Image Chart
2016 9 2 03 26.8 130.8 970 65 5 Image Chart
2016 9 2 06 27.2 130.8 965 70 5 Image Chart
2016 9 2 09 27.5 130.8 965 70 5 Image Chart
2016 9 2 12 27.8 130.8 965 70 5 Image Chart
2016 9 2 15 28.1 130.7 960 70 5 Image Chart
2016 9 2 18 28.5 130.6 955 70 5 Image Chart
2016 9 2 21 28.9 130.5 955 70 5 Image Chart
2016 9 3 00 29.3 130.3 955 70 5 Image Chart
2016 9 3 03 29.7 130.2 955 70 5 Image Chart
2016 9 3 06 30.0 130.1 960 65 5 Image Chart
2016 9 3 09 30.3 130.0 960 65 5 Image Chart
2016 9 3 12 30.5 129.9 965 60 4 Image Chart
2016 9 3 15 30.7 129.9 970 60 4 Image Chart
2016 9 3 18 31.0 129.8 975 55 4 Image Chart
2016 9 3 21 31.2 129.7 980 55 4 Image Chart
2016 9 4 00 31.4 129.6 985 50 4 Image Chart
2016 9 4 03 31.6 129.6 990 50 4 Image Chart
2016 9 4 06 31.8 129.6 992 45 3 Image Chart
2016 9 4 09 32.1 129.6 994 45 3 Image Chart
2016 9 4 12 32.4 129.6 998 40 3 Image Chart
2016 9 4 15 32.7 129.7 1000 35 3 Image Chart
2016 9 4 16 32.8 129.7 1000 35 3 Image Chart
2016 9 4 18 33.1 129.8 1004 0 2 Image Chart
2016 9 4 21 33.5 129.9 1006 0 2 Image Chart
2016 9 5 00 33.9 130.2 1008 0 2 Image Chart
2016 9 5 06 34.8 131.0 1008 0 2 Image Chart
2016 9 5 12 35.9 132.3 1008 0 2 Image Chart
Japan Meteorological Agency Best Track Data | Correction Date : 2016-10-05
< Typhoon 201611 2016 Season Typhoon 201613 >

Help